createdAt,value
2023-02-08T00:04:20.328Z,-1.26
2023-02-08T00:14:26.802Z,-1.21
2023-02-08T00:24:33.121Z,-1.38
2023-02-08T00:34:40.135Z,-1.37
2023-02-08T00:44:46.588Z,-1.50
2023-02-08T00:54:52.887Z,-1.44
2023-02-08T01:04:59.200Z,-1.55
2023-02-08T01:15:06.318Z,-1.32
2023-02-08T01:25:12.667Z,-1.39
2023-02-08T01:35:19.018Z,-1.49
2023-02-08T01:45:30.353Z,-1.53
2023-02-08T01:55:40.509Z,-1.38
2023-02-08T02:05:58.952Z,-1.49
2023-02-08T02:16:05.651Z,-1.33
2023-02-08T02:26:43.871Z,-1.34
2023-02-08T02:37:38.843Z,-1.42
2023-02-08T02:47:54.095Z,-1.36
2023-02-08T02:58:01.905Z,-1.40
2023-02-08T03:08:29.540Z,-1.47
2023-02-08T03:19:00.999Z,-1.47
2023-02-08T03:29:23.792Z,-1.55
2023-02-08T03:39:31.379Z,-1.38
2023-02-08T03:49:38.553Z,-1.38
2023-02-08T03:59:50.190Z,-1.30
2023-02-08T04:09:56.606Z,-1.52
2023-02-08T04:20:02.882Z,-1.41
2023-02-08T04:30:09.644Z,-1.31
2023-02-08T04:40:17.564Z,-1.43
2023-02-08T04:50:23.851Z,-1.34
2023-02-08T05:00:30.602Z,-1.45
2023-02-08T05:10:36.997Z,-1.21
2023-02-08T05:20:43.236Z,-1.22
2023-02-08T05:30:49.910Z,-1.15
2023-02-08T05:40:56.261Z,-1.12
2023-02-08T05:51:02.636Z,-1.13
2023-02-08T06:01:13.288Z,-0.98
2023-02-08T06:11:20.504Z,-1.04
2023-02-08T06:21:26.800Z,-1.03
2023-02-08T06:31:33.447Z,-0.96
2023-02-08T06:41:39.748Z,-0.88
2023-02-08T06:51:46.192Z,-0.81
2023-02-08T07:01:52.592Z,-0.85
2023-02-08T07:11:58.958Z,-1.10
2023-02-08T07:22:11.074Z,-1.09
2023-02-08T07:32:17.396Z,-1.05
2023-02-08T07:42:23.658Z,-0.93
2023-02-08T07:52:30.278Z,-1.04
2023-02-08T08:02:36.547Z,-0.73
2023-02-08T08:12:42.930Z,-0.51
2023-02-08T08:22:49.254Z,-0.57
2023-02-08T08:32:55.571Z,-0.19
2023-02-08T08:43:01.848Z,0.59
2023-02-08T08:53:08.156Z,0.38
2023-02-08T09:03:14.430Z,1.19
2023-02-08T09:13:22.436Z,1.25
2023-02-08T09:23:28.779Z,2.73
2023-02-08T09:33:35.102Z,3.14
2023-02-08T09:44:06.742Z,0.92
2023-02-08T09:54:45.392Z,1.53
2023-02-08T10:05:00.576Z,2.67
2023-02-08T10:15:11.694Z,2.94
2023-02-08T10:25:38.187Z,2.82
2023-02-08T10:35:46.857Z,3.00
2023-02-08T10:46:02.664Z,2.50
2023-02-08T10:56:35.806Z,1.63
2023-02-08T11:06:43.801Z,1.62
2023-02-08T11:17:00.314Z,0.91
2023-02-08T11:27:18.182Z,0.93
2023-02-08T11:37:29.615Z,1.01
2023-02-08T11:47:38.580Z,1.83
2023-02-08T11:58:02.549Z,2.43
2023-02-08T12:08:39.128Z,3.13
2023-02-08T12:18:48.553Z,2.32
2023-02-08T12:29:04.081Z,2.84
2023-02-08T12:39:50.005Z,2.30
2023-02-08T12:50:18.171Z,2.41
2023-02-08T13:00:30.456Z,2.19
2023-02-08T13:10:41.994Z,2.01
2023-02-08T13:20:52.726Z,2.24
2023-02-08T13:31:19.661Z,2.01
2023-02-08T13:41:28.035Z,1.77
2023-02-08T13:51:34.265Z,1.94
2023-02-08T14:02:16.148Z,1.91
2023-02-08T14:12:32.657Z,2.12
2023-02-08T14:22:53.120Z,1.85
2023-02-08T14:33:08.649Z,1.68
2023-02-08T14:43:21.100Z,1.49
2023-02-08T14:53:52.285Z,1.58
2023-02-08T15:04:02.258Z,1.48
2023-02-08T15:14:19.028Z,1.19
2023-02-08T15:24:30.170Z,1.06
2023-02-08T15:34:37.244Z,0.94
2023-02-08T15:44:45.093Z,0.70
2023-02-08T15:54:52.161Z,0.47
2023-02-08T16:04:59.323Z,0.25
2023-02-08T16:15:06.105Z,0.00
2023-02-08T16:25:30.641Z,-0.44
2023-02-08T16:35:39.031Z,-0.65
2023-02-08T16:45:45.423Z,-0.93
2023-02-08T16:55:51.807Z,-0.98
2023-02-08T17:05:58.193Z,-1.32
2023-02-08T17:16:04.703Z,-1.74
2023-02-08T17:26:15.075Z,-1.83
2023-02-08T17:36:21.392Z,-1.87
2023-02-08T17:46:29.274Z,-1.91
2023-02-08T17:56:36.637Z,-2.16
2023-02-08T18:06:42.965Z,-2.19
2023-02-08T18:16:49.255Z,-2.24
2023-02-08T18:26:55.629Z,-2.23
2023-02-08T18:37:02.168Z,-2.39
2023-02-08T18:47:08.345Z,-2.64
2023-02-08T18:57:15.405Z,-2.60
2023-02-08T19:07:21.877Z,-2.97
2023-02-08T19:17:28.176Z,-3.23
2023-02-08T19:27:34.664Z,-3.00
2023-02-08T19:37:42.232Z,-3.12
2023-02-08T19:47:51.657Z,-3.31
2023-02-08T19:57:58.205Z,-3.42
2023-02-08T20:08:04.946Z,-3.44
2023-02-08T20:18:13.064Z,-3.59
2023-02-08T20:28:19.661Z,-3.39
2023-02-08T20:38:26.098Z,-3.52
2023-02-08T20:48:32.703Z,-3.54
2023-02-08T20:58:39.733Z,-3.73
2023-02-08T21:08:46.873Z,-4.20
2023-02-08T21:18:53.459Z,-3.85
2023-02-08T21:28:59.991Z,-3.84
2023-02-08T21:39:06.463Z,-4.17
2023-02-08T21:49:31.240Z,-4.30
2023-02-08T21:59:38.661Z,-4.43
2023-02-08T22:09:45.119Z,-4.29
2023-02-08T22:19:51.421Z,-4.48
2023-02-08T22:29:57.800Z,-4.62
2023-02-08T22:40:04.909Z,-4.73
2023-02-08T22:50:11.671Z,-5.11
2023-02-08T23:00:18.235Z,-5.15
2023-02-08T23:10:24.619Z,-5.28
2023-02-08T23:20:30.936Z,-5.19
2023-02-08T23:30:40.892Z,-5.18
2023-02-08T23:40:47.371Z,-5.48
2023-02-08T23:51:02.049Z,-5.36
